Atwater, Ohio
Current Conditions -  °F | °C
As of 2:21 AM on Saturday 29 Nov 2014 (Local Time) from KPOV Reporting Station
Overcast Overcast  
Wind Chill: 28°   Ceiling: 6500
Heat Index: 28°   Visibility: 10mi
Dew Point: 19°   Wind: 3mph
Humidity: 68%   Direction: 140°SE
Pressure: 30.11"   Gusts: NA
Location:  41.02°N, 81.16°W
Report Text: KPOV 290721Z AUTO 14003KT 10SM OVC065 M02/M07 A3011 RMK AO2 T10211072
Loading
Personal Weather Stations






























Interactive Weather Map New forecast layout! Learn more

10-Day Weather Forecast

Advertisements
Track Severe Weather on mobile